sensor_id;sensor_type;location;lat;lon;timestamp;P1;durP1;ratioP1;P2;durP2;ratioP2
71343;SDS011;59146;43.850;25.948;2023-01-09T00:00:09;138.90;;;49.20;;
71343;SDS011;59146;43.850;25.948;2023-01-09T00:02:35;140.25;;;48.03;;
71343;SDS011;59146;43.850;25.948;2023-01-09T00:05:04;189.10;;;45.38;;
71343;SDS011;59146;43.850;25.948;2023-01-09T00:07:31;220.45;;;47.78;;
71343;SDS011;59146;43.850;25.948;2023-01-09T00:09:56;131.65;;;44.17;;
71343;SDS011;59146;43.850;25.948;2023-01-09T00:12:21;148.73;;;43.08;;
71343;SDS011;59146;43.850;25.948;2023-01-09T00:14:47;370.85;;;51.55;;
71343;SDS011;59146;43.850;25.948;2023-01-09T00:17:12;166.02;;;47.13;;
71343;SDS011;59146;43.850;25.948;2023-01-09T00:19:38;191.38;;;47.90;;
71343;SDS011;59146;43.850;25.948;2023-01-09T00:22:03;270.15;;;48.28;;
71343;SDS011;59146;43.850;25.948;2023-01-09T00:24:30;302.85;;;50.10;;
71343;SDS011;59146;43.850;25.948;2023-01-09T00:26:56;408.20;;;55.88;;
71343;SDS011;59146;43.850;25.948;2023-01-09T00:29:21;287.45;;;59.90;;
71343;SDS011;59146;43.850;25.948;2023-01-09T00:31:47;463.75;;;59.30;;
71343;SDS011;59146;43.850;25.948;2023-01-09T00:34:12;207.70;;;45.97;;
71343;SDS011;59146;43.850;25.948;2023-01-09T00:36:37;147.95;;;44.55;;
71343;SDS011;59146;43.850;25.948;2023-01-09T00:39:03;279.48;;;48.72;;
71343;SDS011;59146;43.850;25.948;2023-01-09T00:41:39;293.02;;;48.03;;
71343;SDS011;59146;43.850;25.948;2023-01-09T00:44:09;252.10;;;47.55;;
71343;SDS011;59146;43.850;25.948;2023-01-09T00:46:40;375.00;;;52.67;;
71343;SDS011;59146;43.850;25.948;2023-01-09T00:49:11;157.60;;;43.22;;
71343;SDS011;59146;43.850;25.948;2023-01-09T00:51:38;157.88;;;42.75;;
71343;SDS011;59146;43.850;25.948;2023-01-09T00:54:05;209.40;;;44.83;;
71343;SDS011;59146;43.850;25.948;2023-01-09T00:56:32;351.23;;;46.72;;
71343;SDS011;59146;43.850;25.948;2023-01-09T00:59:00;208.05;;;40.05;;
71343;SDS011;59146;43.850;25.948;2023-01-09T01:01:26;229.43;;;40.95;;
71343;SDS011;59146;43.850;25.948;2023-01-09T01:03:51;355.83;;;47.10;;
71343;SDS011;59146;43.850;25.948;2023-01-09T01:06:17;210.25;;;40.67;;
71343;SDS011;59146;43.850;25.948;2023-01-09T01:09:00;266.80;;;42.22;;
71343;SDS011;59146;43.850;25.948;2023-01-09T01:11:26;146.38;;;38.92;;
71343;SDS011;59146;43.850;25.948;2023-01-09T01:13:52;204.63;;;40.25;;
71343;SDS011;59146;43.850;25.948;2023-01-09T01:16:17;165.75;;;42.20;;
71343;SDS011;59146;43.850;25.948;2023-01-09T01:18:43;355.42;;;46.50;;
71343;SDS011;59146;43.850;25.948;2023-01-09T01:21:10;225.23;;;44.05;;
71343;SDS011;59146;43.850;25.948;2023-01-09T01:23:37;391.17;;;52.80;;
71343;SDS011;59146;43.850;25.948;2023-01-09T01:26:04;210.93;;;46.83;;
71343;SDS011;59146;43.850;25.948;2023-01-09T01:28:31;328.98;;;51.70;;
71343;SDS011;59146;43.850;25.948;2023-01-09T01:30:56;253.38;;;48.90;;
71343;SDS011;59146;43.850;25.948;2023-01-09T01:33:21;284.92;;;48.72;;
71343;SDS011;59146;43.850;25.948;2023-01-09T01:35:47;233.02;;;48.05;;
71343;SDS011;59146;43.850;25.948;2023-01-09T01:38:12;212.05;;;44.17;;
71343;SDS011;59146;43.850;25.948;2023-01-09T01:40:37;377.10;;;49.47;;
71343;SDS011;59146;43.850;25.948;2023-01-09T01:43:04;330.02;;;49.50;;
71343;SDS011;59146;43.850;25.948;2023-01-09T01:45:30;259.10;;;47.63;;
71343;SDS011;59146;43.850;25.948;2023-01-09T01:55:41;284.38;;;46.22;;
71343;SDS011;59146;43.850;25.948;2023-01-09T01:58:10;199.32;;;41.60;;
71343;SDS011;59146;43.850;25.948;2023-01-09T02:00:41;256.83;;;44.92;;
71343;SDS011;59146;43.850;25.948;2023-01-09T02:03:08;166.38;;;41.10;;
71343;SDS011;59146;43.850;25.948;2023-01-09T02:05:35;307.58;;;45.33;;
71343;SDS011;59146;43.850;25.948;2023-01-09T02:08:03;196.50;;;42.55;;
71343;SDS011;59146;43.850;25.948;2023-01-09T02:10:30;141.63;;;42.72;;
71343;SDS011;59146;43.850;25.948;2023-01-09T02:12:56;262.35;;;44.50;;
71343;SDS011;59146;43.850;25.948;2023-01-09T02:15:22;272.05;;;47.80;;
71343;SDS011;59146;43.850;25.948;2023-01-09T02:31:39;147.00;;;44.42;;
71343;SDS011;59146;43.850;25.948;2023-01-09T02:34:13;182.93;;;44.85;;
71343;SDS011;59146;43.850;25.948;2023-01-09T02:36:53;556.47;;;56.92;;
71343;SDS011;59146;43.850;25.948;2023-01-09T02:39:36;148.98;;;40.80;;
71343;SDS011;59146;43.850;25.948;2023-01-09T02:42:08;145.38;;;41.10;;
71343;SDS011;59146;43.850;25.948;2023-01-09T02:44:38;186.65;;;42.55;;
71343;SDS011;59146;43.850;25.948;2023-01-09T02:49:49;207.45;;;44.42;;
71343;SDS011;59146;43.850;25.948;2023-01-09T03:05:42;180.57;;;44.72;;
71343;SDS011;59146;43.850;25.948;2023-01-09T03:08:16;316.42;;;49.15;;
71343;SDS011;59146;43.850;25.948;2023-01-09T03:10:50;149.10;;;43.60;;
71343;SDS011;59146;43.850;25.948;2023-01-09T03:13:20;322.58;;;48.92;;
71343;SDS011;59146;43.850;25.948;2023-01-09T03:15:49;179.45;;;45.08;;
71343;SDS011;59146;43.850;25.948;2023-01-09T03:18:18;241.85;;;46.50;;
71343;SDS011;59146;43.850;25.948;2023-01-09T03:20:46;219.75;;;44.53;;
71343;SDS011;59146;43.850;25.948;2023-01-09T03:23:12;235.48;;;46.13;;
71343;SDS011;59146;43.850;25.948;2023-01-09T03:25:37;180.85;;;44.95;;
71343;SDS011;59146;43.850;25.948;2023-01-09T03:28:07;283.30;;;46.83;;
71343;SDS011;59146;43.850;25.948;2023-01-09T03:30:37;208.80;;;41.95;;
71343;SDS011;59146;43.850;25.948;2023-01-09T03:33:02;201.25;;;41.45;;
71343;SDS011;59146;43.850;25.948;2023-01-09T03:35:28;448.73;;;49.92;;
71343;SDS011;59146;43.850;25.948;2023-01-09T03:37:53;179.90;;;40.97;;
71343;SDS011;59146;43.850;25.948;2023-01-09T03:40:19;479.65;;;50.08;;
71343;SDS011;59146;43.850;25.948;2023-01-09T03:42:44;168.52;;;39.42;;
71343;SDS011;59146;43.850;25.948;2023-01-09T03:45:10;289.02;;;41.50;;
71343;SDS011;59146;43.850;25.948;2023-01-09T03:47:36;270.63;;;43.05;;
71343;SDS011;59146;43.850;25.948;2023-01-09T03:50:01;385.83;;;45.10;;
71343;SDS011;59146;43.850;25.948;2023-01-09T03:52:27;317.88;;;42.15;;
71343;SDS011;59146;43.850;25.948;2023-01-09T03:54:52;302.33;;;39.97;;
71343;SDS011;59146;43.850;25.948;2023-01-09T03:57:17;219.52;;;41.10;;
71343;SDS011;59146;43.850;25.948;2023-01-09T03:59:43;272.48;;;41.75;;
71343;SDS011;59146;43.850;25.948;2023-01-09T04:02:08;353.17;;;43.10;;
71343;SDS011;59146;43.850;25.948;2023-01-09T04:04:34;309.08;;;44.55;;
71343;SDS011;59146;43.850;25.948;2023-01-09T04:06:59;277.50;;;40.40;;
71343;SDS011;59146;43.850;25.948;2023-01-09T04:09:24;299.58;;;42.70;;
71343;SDS011;59146;43.850;25.948;2023-01-09T04:11:50;421.85;;;47.58;;
71343;SDS011;59146;43.850;25.948;2023-01-09T04:14:15;209.60;;;37.72;;
71343;SDS011;59146;43.850;25.948;2023-01-09T04:16:41;401.20;;;45.88;;
71343;SDS011;59146;43.850;25.948;2023-01-09T04:19:06;421.25;;;48.75;;
71343;SDS011;59146;43.850;25.948;2023-01-09T04:21:32;327.05;;;43.50;;
71343;SDS011;59146;43.850;25.948;2023-01-09T04:23:57;134.57;;;38.28;;
71343;SDS011;59146;43.850;25.948;2023-01-09T04:26:23;205.18;;;37.15;;
71343;SDS011;59146;43.850;25.948;2023-01-09T04:28:48;227.57;;;43.25;;
71343;SDS011;59146;43.850;25.948;2023-01-09T04:31:13;308.52;;;40.55;;
71343;SDS011;59146;43.850;25.948;2023-01-09T04:33:39;166.75;;;38.10;;
71343;SDS011;59146;43.850;25.948;2023-01-09T04:36:04;346.23;;;42.97;;
71343;SDS011;59146;43.850;25.948;2023-01-09T04:38:31;149.82;;;36.33;;
71343;SDS011;59146;43.850;25.948;2023-01-09T04:40:56;280.85;;;39.80;;
71343;SDS011;59146;43.850;25.948;2023-01-09T04:43:22;239.98;;;41.80;;
71343;SDS011;59146;43.850;25.948;2023-01-09T04:45:47;302.77;;;39.60;;
71343;SDS011;59146;43.850;25.948;2023-01-09T04:48:12;261.73;;;41.35;;
71343;SDS011;59146;43.850;25.948;2023-01-09T04:50:38;263.60;;;40.25;;
71343;SDS011;59146;43.850;25.948;2023-01-09T04:53:03;282.40;;;41.55;;
71343;SDS011;59146;43.850;25.948;2023-01-09T04:55:29;217.85;;;39.20;;
71343;SDS011;59146;43.850;25.948;2023-01-09T04:57:55;179.25;;;39.03;;
71343;SDS011;59146;43.850;25.948;2023-01-09T05:00:20;221.60;;;38.30;;
71343;SDS011;59146;43.850;25.948;2023-01-09T05:02:46;169.75;;;38.67;;
71343;SDS011;59146;43.850;25.948;2023-01-09T05:05:11;234.23;;;37.05;;
71343;SDS011;59146;43.850;25.948;2023-01-09T05:07:37;312.08;;;42.00;;
71343;SDS011;59146;43.850;25.948;2023-01-09T05:10:02;411.33;;;46.15;;
71343;SDS011;59146;43.850;25.948;2023-01-09T05:12:29;178.43;;;36.95;;
71343;SDS011;59146;43.850;25.948;2023-01-09T05:14:54;187.48;;;36.05;;
71343;SDS011;59146;43.850;25.948;2023-01-09T05:17:21;206.60;;;38.35;;
71343;SDS011;59146;43.850;25.948;2023-01-09T05:19:47;171.05;;;32.75;;
71343;SDS011;59146;43.850;25.948;2023-01-09T05:22:12;93.47;;;31.40;;
71343;SDS011;59146;43.850;25.948;2023-01-09T05:24:38;146.80;;;32.55;;
71343;SDS011;59146;43.850;25.948;2023-01-09T05:27:03;122.50;;;33.65;;
71343;SDS011;59146;43.850;25.948;2023-01-09T05:29:29;110.93;;;32.97;;
71343;SDS011;59146;43.850;25.948;2023-01-09T05:31:54;96.55;;;29.90;;
71343;SDS011;59146;43.850;25.948;2023-01-09T05:34:20;93.20;;;31.02;;
71343;SDS011;59146;43.850;25.948;2023-01-09T05:36:46;108.68;;;28.88;;
71343;SDS011;59146;43.850;25.948;2023-01-09T05:39:11;119.60;;;30.13;;
71343;SDS011;59146;43.850;25.948;2023-01-09T05:41:37;130.63;;;30.65;;
71343;SDS011;59146;43.850;25.948;2023-01-09T05:44:02;147.75;;;32.38;;
71343;SDS011;59146;43.850;25.948;2023-01-09T05:46:29;114.50;;;33.35;;
71343;SDS011;59146;43.850;25.948;2023-01-09T05:48:55;190.30;;;32.53;;
71343;SDS011;59146;43.850;25.948;2023-01-09T05:51:20;296.17;;;38.50;;
71343;SDS011;59146;43.850;25.948;2023-01-09T05:53:45;203.40;;;31.17;;
71343;SDS011;59146;43.850;25.948;2023-01-09T05:56:11;90.97;;;31.00;;
71343;SDS011;59146;43.850;25.948;2023-01-09T05:58:36;91.05;;;32.58;;
71343;SDS011;59146;43.850;25.948;2023-01-09T06:01:01;110.95;;;35.00;;
71343;SDS011;59146;43.850;25.948;2023-01-09T06:03:27;144.30;;;33.70;;
71343;SDS011;59146;43.850;25.948;2023-01-09T06:05:52;105.95;;;31.77;;
71343;SDS011;59146;43.850;25.948;2023-01-09T06:08:18;111.72;;;30.55;;
71343;SDS011;59146;43.850;25.948;2023-01-09T06:10:44;178.00;;;32.92;;
71343;SDS011;59146;43.850;25.948;2023-01-09T06:13:10;222.68;;;31.92;;
71343;SDS011;59146;43.850;25.948;2023-01-09T06:15:35;143.55;;;32.38;;
71343;SDS011;59146;43.850;25.948;2023-01-09T06:18:01;139.15;;;32.33;;
71343;SDS011;59146;43.850;25.948;2023-01-09T06:20:26;130.63;;;32.80;;
71343;SDS011;59146;43.850;25.948;2023-01-09T06:22:51;115.78;;;32.55;;
71343;SDS011;59146;43.850;25.948;2023-01-09T06:25:17;181.55;;;34.20;;
71343;SDS011;59146;43.850;25.948;2023-01-09T06:27:43;180.65;;;31.85;;
71343;SDS011;59146;43.850;25.948;2023-01-09T06:30:08;438.08;;;44.78;;
71343;SDS011;59146;43.850;25.948;2023-01-09T06:32:34;133.90;;;33.53;;
71343;SDS011;59146;43.850;25.948;2023-01-09T06:34:59;137.57;;;36.60;;
71343;SDS011;59146;43.850;25.948;2023-01-09T06:37:25;207.05;;;34.15;;
71343;SDS011;59146;43.850;25.948;2023-01-09T06:39:50;148.70;;;32.03;;
71343;SDS011;59146;43.850;25.948;2023-01-09T06:42:18;108.18;;;31.23;;
71343;SDS011;59146;43.850;25.948;2023-01-09T06:44:43;146.82;;;33.22;;
71343;SDS011;59146;43.850;25.948;2023-01-09T06:47:08;182.82;;;36.83;;
71343;SDS011;59146;43.850;25.948;2023-01-09T06:49:34;104.97;;;40.50;;
71343;SDS011;59146;43.850;25.948;2023-01-09T06:51:59;292.63;;;46.60;;
71343;SDS011;59146;43.850;25.948;2023-01-09T06:54:29;140.13;;;43.35;;
71343;SDS011;59146;43.850;25.948;2023-01-09T06:56:55;236.70;;;47.95;;
71343;SDS011;59146;43.850;25.948;2023-01-09T06:59:20;305.30;;;51.08;;
71343;SDS011;59146;43.850;25.948;2023-01-09T07:01:46;153.80;;;39.38;;
71343;SDS011;59146;43.850;25.948;2023-01-09T07:04:11;131.10;;;31.50;;
71343;SDS011;59146;43.850;25.948;2023-01-09T07:06:37;666.88;;;59.50;;
71343;SDS011;59146;43.850;25.948;2023-01-09T07:09:02;274.05;;;40.55;;
71343;SDS011;59146;43.850;25.948;2023-01-09T07:11:30;221.38;;;34.40;;
71343;SDS011;59146;43.850;25.948;2023-01-09T07:13:55;153.38;;;32.90;;
71343;SDS011;59146;43.850;25.948;2023-01-09T07:16:21;285.08;;;35.22;;
71343;SDS011;59146;43.850;25.948;2023-01-09T07:18:46;104.63;;;33.85;;
71343;SDS011;59146;43.850;25.948;2023-01-09T07:21:12;106.22;;;31.63;;
71343;SDS011;59146;43.850;25.948;2023-01-09T07:23:37;125.80;;;36.40;;
71343;SDS011;59146;43.850;25.948;2023-01-09T07:26:02;141.30;;;37.25;;
71343;SDS011;59146;43.850;25.948;2023-01-09T07:28:28;154.02;;;40.00;;
71343;SDS011;59146;43.850;25.948;2023-01-09T07:30:54;309.30;;;47.15;;
71343;SDS011;59146;43.850;25.948;2023-01-09T07:33:19;166.15;;;42.83;;
71343;SDS011;59146;43.850;25.948;2023-01-09T07:35:44;158.82;;;43.47;;
71343;SDS011;59146;43.850;25.948;2023-01-09T07:38:10;172.07;;;41.15;;
71343;SDS011;59146;43.850;25.948;2023-01-09T07:40:35;209.00;;;44.50;;
71343;SDS011;59146;43.850;25.948;2023-01-09T07:43:00;174.85;;;45.03;;
71343;SDS011;59146;43.850;25.948;2023-01-09T07:45:26;122.60;;;43.92;;
71343;SDS011;59146;43.850;25.948;2023-01-09T07:47:52;131.55;;;41.50;;
71343;SDS011;59146;43.850;25.948;2023-01-09T07:50:18;123.75;;;48.10;;
71343;SDS011;59146;43.850;25.948;2023-01-09T07:52:46;124.03;;;47.08;;
71343;SDS011;59146;43.850;25.948;2023-01-09T07:55:12;144.80;;;46.38;;
71343;SDS011;59146;43.850;25.948;2023-01-09T07:57:38;139.75;;;45.45;;
71343;SDS011;59146;43.850;25.948;2023-01-09T08:00:04;154.77;;;45.25;;
71343;SDS011;59146;43.850;25.948;2023-01-09T08:02:31;136.65;;;44.50;;
71343;SDS011;59146;43.850;25.948;2023-01-09T08:04:56;155.02;;;45.03;;
71343;SDS011;59146;43.850;25.948;2023-01-09T08:07:22;178.57;;;44.67;;
71343;SDS011;59146;43.850;25.948;2023-01-09T08:09:47;135.82;;;42.30;;
71343;SDS011;59146;43.850;25.948;2023-01-09T08:12:13;118.05;;;44.15;;
71343;SDS011;59146;43.850;25.948;2023-01-09T08:14:38;97.22;;;41.08;;
71343;SDS011;59146;43.850;25.948;2023-01-09T08:17:03;76.93;;;38.03;;
71343;SDS011;59146;43.850;25.948;2023-01-09T08:19:29;76.68;;;37.00;;
71343;SDS011;59146;43.850;25.948;2023-01-09T08:21:54;94.38;;;38.42;;
71343;SDS011;59146;43.850;25.948;2023-01-09T08:24:20;85.55;;;38.42;;
71343;SDS011;59146;43.850;25.948;2023-01-09T08:26:45;90.93;;;39.28;;
71343;SDS011;59146;43.850;25.948;2023-01-09T08:29:11;119.88;;;40.80;;
71343;SDS011;59146;43.850;25.948;2023-01-09T08:31:36;110.82;;;42.17;;
71343;SDS011;59146;43.850;25.948;2023-01-09T08:34:01;112.93;;;43.33;;
71343;SDS011;59146;43.850;25.948;2023-01-09T08:36:27;113.55;;;45.10;;
71343;SDS011;59146;43.850;25.948;2023-01-09T08:38:52;125.15;;;42.60;;
71343;SDS011;59146;43.850;25.948;2023-01-09T08:41:18;112.00;;;42.53;;
71343;SDS011;59146;43.850;25.948;2023-01-09T08:44:22;108.28;;;43.10;;
71343;SDS011;59146;43.850;25.948;2023-01-09T08:47:06;105.97;;;41.35;;
71343;SDS011;59146;43.850;25.948;2023-01-09T08:49:35;93.75;;;36.05;;
71343;SDS011;59146;43.850;25.948;2023-01-09T08:52:02;87.28;;;36.40;;
71343;SDS011;59146;43.850;25.948;2023-01-09T08:54:29;133.52;;;36.72;;
71343;SDS011;59146;43.850;25.948;2023-01-09T08:56:54;132.82;;;37.22;;
71343;SDS011;59146;43.850;25.948;2023-01-09T08:59:20;114.47;;;36.80;;
71343;SDS011;59146;43.850;25.948;2023-01-09T09:01:45;102.93;;;35.80;;
71343;SDS011;59146;43.850;25.948;2023-01-09T09:04:10;104.88;;;33.03;;
71343;SDS011;59146;43.850;25.948;2023-01-09T09:06:36;110.95;;;37.60;;
71343;SDS011;59146;43.850;25.948;2023-01-09T09:09:01;89.15;;;40.83;;
71343;SDS011;59146;43.850;25.948;2023-01-09T09:11:33;102.20;;;39.33;;
71343;SDS011;59146;43.850;25.948;2023-01-09T09:14:00;128.00;;;36.95;;
71343;SDS011;59146;43.850;25.948;2023-01-09T09:16:46;117.35;;;37.35;;
71343;SDS011;59146;43.850;25.948;2023-01-09T09:19:12;124.95;;;42.22;;
71343;SDS011;59146;43.850;25.948;2023-01-09T09:21:37;118.43;;;47.33;;
71343;SDS011;59146;43.850;25.948;2023-01-09T09:24:03;332.70;;;43.97;;
71343;SDS011;59146;43.850;25.948;2023-01-09T09:26:28;149.80;;;40.70;;
71343;SDS011;59146;43.850;25.948;2023-01-09T09:28:53;141.48;;;40.22;;
71343;SDS011;59146;43.850;25.948;2023-01-09T09:31:19;199.55;;;38.80;;
71343;SDS011;59146;43.850;25.948;2023-01-09T09:33:44;237.32;;;40.47;;
71343;SDS011;59146;43.850;25.948;2023-01-09T09:36:09;164.98;;;39.97;;
71343;SDS011;59146;43.850;25.948;2023-01-09T09:38:35;127.95;;;38.28;;
71343;SDS011;59146;43.850;25.948;2023-01-09T09:41:04;128.75;;;42.55;;
71343;SDS011;59146;43.850;25.948;2023-01-09T09:46:58;174.32;;;52.20;;
71343;SDS011;59146;43.850;25.948;2023-01-09T09:49:53;129.43;;;46.83;;
71343;SDS011;59146;43.850;25.948;2023-01-09T09:55:15;124.95;;;47.22;;
71343;SDS011;59146;43.850;25.948;2023-01-09T09:57:44;176.73;;;49.83;;
71343;SDS011;59146;43.850;25.948;2023-01-09T10:00:16;147.23;;;50.33;;
71343;SDS011;59146;43.850;25.948;2023-01-09T10:05:27;138.05;;;43.47;;
71343;SDS011;59146;43.850;25.948;2023-01-09T10:08:03;123.82;;;40.67;;
71343;SDS011;59146;43.850;25.948;2023-01-09T10:10:54;104.00;;;38.15;;
71343;SDS011;59146;43.850;25.948;2023-01-09T10:13:22;110.00;;;38.97;;
71343;SDS011;59146;43.850;25.948;2023-01-09T10:16:10;114.85;;;35.92;;
71343;SDS011;59146;43.850;25.948;2023-01-09T10:21:52;95.43;;;31.08;;
71343;SDS011;59146;43.850;25.948;2023-01-09T10:27:01;114.57;;;33.45;;
71343;SDS011;59146;43.850;25.948;2023-01-09T10:29:35;84.75;;;34.03;;
71343;SDS011;59146;43.850;25.948;2023-01-09T10:35:03;66.57;;;30.92;;
71343;SDS011;59146;43.850;25.948;2023-01-09T10:37:37;87.50;;;31.55;;
71343;SDS011;59146;43.850;25.948;2023-01-09T10:40:07;107.28;;;31.05;;
71343;SDS011;59146;43.850;25.948;2023-01-09T10:47:37;70.15;;;29.35;;
71343;SDS011;59146;43.850;25.948;2023-01-09T10:50:18;76.47;;;30.88;;
71343;SDS011;59146;43.850;25.948;2023-01-09T10:52:49;143.73;;;28.92;;
71343;SDS011;59146;43.850;25.948;2023-01-09T10:55:50;84.80;;;27.65;;
71343;SDS011;59146;43.850;25.948;2023-01-09T10:58:12;75.78;;;30.20;;
71343;SDS011;59146;43.850;25.948;2023-01-09T11:00:42;61.72;;;30.17;;
71343;SDS011;59146;43.850;25.948;2023-01-09T11:03:10;64.88;;;29.75;;
71343;SDS011;59146;43.850;25.948;2023-01-09T11:05:44;79.85;;;30.70;;
71343;SDS011;59146;43.850;25.948;2023-01-09T11:08:37;113.82;;;32.30;;
71343;SDS011;59146;43.850;25.948;2023-01-09T11:11:06;81.10;;;29.70;;
71343;SDS011;59146;43.850;25.948;2023-01-09T11:13:34;73.22;;;29.50;;
71343;SDS011;59146;43.850;25.948;2023-01-09T11:18:47;70.93;;;29.52;;
71343;SDS011;59146;43.850;25.948;2023-01-09T11:26:45;62.50;;;28.48;;
71343;SDS011;59146;43.850;25.948;2023-01-09T11:29:13;50.15;;;26.73;;
71343;SDS011;59146;43.850;25.948;2023-01-09T11:31:51;80.47;;;28.52;;
71343;SDS011;59146;43.850;25.948;2023-01-09T11:34:32;58.58;;;27.58;;
71343;SDS011;59146;43.850;25.948;2023-01-09T11:37:41;420.05;;;37.17;;
71343;SDS011;59146;43.850;25.948;2023-01-09T11:39:52;76.13;;;27.15;;
71343;SDS011;59146;43.850;25.948;2023-01-09T11:42:23;113.82;;;28.05;;
71343;SDS011;59146;43.850;25.948;2023-01-09T11:45:15;64.60;;;28.50;;
71343;SDS011;59146;43.850;25.948;2023-01-09T11:47:43;126.18;;;29.52;;
71343;SDS011;59146;43.850;25.948;2023-01-09T11:50:17;93.65;;;27.23;;
71343;SDS011;59146;43.850;25.948;2023-01-09T11:55:38;93.68;;;29.15;;
71343;SDS011;59146;43.850;25.948;2023-01-09T11:58:04;80.03;;;30.50;;
71343;SDS011;59146;43.850;25.948;2023-01-09T12:00:34;155.43;;;33.10;;
71343;SDS011;59146;43.850;25.948;2023-01-09T12:03:17;212.07;;;34.13;;
71343;SDS011;59146;43.850;25.948;2023-01-09T12:05:54;165.68;;;31.05;;
71343;SDS011;59146;43.850;25.948;2023-01-09T12:08:38;53.33;;;28.63;;
71343;SDS011;59146;43.850;25.948;2023-01-09T12:17:00;121.32;;;29.83;;
71343;SDS011;59146;43.850;25.948;2023-01-09T12:28:16;183.93;;;33.50;;
71343;SDS011;59146;43.850;25.948;2023-01-09T12:33:48;101.82;;;33.58;;
71343;SDS011;59146;43.850;25.948;2023-01-09T12:36:24;102.82;;;36.30;;
71343;SDS011;59146;43.850;25.948;2023-01-09T12:38:55;102.45;;;34.83;;
71343;SDS011;59146;43.850;25.948;2023-01-09T12:49:42;103.85;;;37.50;;
71343;SDS011;59146;43.850;25.948;2023-01-09T12:52:23;300.25;;;43.70;;
71343;SDS011;59146;43.850;25.948;2023-01-09T12:54:57;89.32;;;38.60;;
71343;SDS011;59146;43.850;25.948;2023-01-09T12:57:30;92.80;;;41.72;;
71343;SDS011;59146;43.850;25.948;2023-01-09T13:00:05;93.38;;;44.80;;
71343;SDS011;59146;43.850;25.948;2023-01-09T13:05:29;169.38;;;65.60;;
71343;SDS011;59146;43.850;25.948;2023-01-09T13:10:40;106.05;;;48.95;;
71343;SDS011;59146;43.850;25.948;2023-01-09T13:13:13;130.15;;;54.53;;
71343;SDS011;59146;43.850;25.948;2023-01-09T13:16:01;117.82;;;52.05;;
71343;SDS011;59146;43.850;25.948;2023-01-09T13:21:05;239.82;;;54.83;;
71343;SDS011;59146;43.850;25.948;2023-01-09T13:26:03;139.65;;;52.00;;
71343;SDS011;59146;43.850;25.948;2023-01-09T13:28:38;192.45;;;51.22;;
71343;SDS011;59146;43.850;25.948;2023-01-09T13:33:54;251.43;;;42.70;;
71343;SDS011;59146;43.850;25.948;2023-01-09T13:38:59;258.30;;;42.28;;
71343;SDS011;59146;43.850;25.948;2023-01-09T13:41:25;429.02;;;45.50;;
71343;SDS011;59146;43.850;25.948;2023-01-09T13:46:43;164.18;;;44.30;;
71343;SDS011;59146;43.850;25.948;2023-01-09T13:51:58;197.55;;;47.72;;
71343;SDS011;59146;43.850;25.948;2023-01-09T13:59:41;136.73;;;48.10;;
71343;SDS011;59146;43.850;25.948;2023-01-09T14:05:00;132.75;;;50.65;;
71343;SDS011;59146;43.850;25.948;2023-01-09T14:07:27;238.18;;;53.58;;
71343;SDS011;59146;43.850;25.948;2023-01-09T14:09:58;155.80;;;55.83;;
71343;SDS011;59146;43.850;25.948;2023-01-09T14:12:31;179.55;;;52.40;;
71343;SDS011;59146;43.850;25.948;2023-01-09T14:15:04;197.63;;;49.85;;
71343;SDS011;59146;43.850;25.948;2023-01-09T14:17:42;295.80;;;51.70;;
71343;SDS011;59146;43.850;25.948;2023-01-09T14:20:17;173.23;;;50.67;;
71343;SDS011;59146;43.850;25.948;2023-01-09T14:22:54;121.03;;;43.78;;
71343;SDS011;59146;43.850;25.948;2023-01-09T14:32:56;156.18;;;45.42;;
71343;SDS011;59146;43.850;25.948;2023-01-09T14:35:26;260.05;;;48.33;;
71343;SDS011;59146;43.850;25.948;2023-01-09T14:37:58;216.02;;;47.45;;
71343;SDS011;59146;43.850;25.948;2023-01-09T14:40:27;349.52;;;50.78;;
71343;SDS011;59146;43.850;25.948;2023-01-09T14:42:53;184.15;;;52.33;;
71343;SDS011;59146;43.850;25.948;2023-01-09T14:45:23;135.45;;;51.13;;
71343;SDS011;59146;43.850;25.948;2023-01-09T14:47:52;432.55;;;49.55;;
71343;SDS011;59146;43.850;25.948;2023-01-09T14:50:32;277.02;;;47.65;;
71343;SDS011;59146;43.850;25.948;2023-01-09T14:56:00;248.95;;;52.65;;
71343;SDS011;59146;43.850;25.948;2023-01-09T14:58:30;283.85;;;49.72;;
71343;SDS011;59146;43.850;25.948;2023-01-09T15:03:22;198.23;;;49.90;;
71343;SDS011;59146;43.850;25.948;2023-01-09T15:05:50;245.55;;;51.83;;
71343;SDS011;59146;43.850;25.948;2023-01-09T15:08:18;199.52;;;55.92;;
71343;SDS011;59146;43.850;25.948;2023-01-09T15:10:50;134.73;;;49.20;;
71343;SDS011;59146;43.850;25.948;2023-01-09T15:13:22;207.98;;;53.05;;
71343;SDS011;59146;43.850;25.948;2023-01-09T15:15:50;303.70;;;52.40;;
71343;SDS011;59146;43.850;25.948;2023-01-09T15:18:25;238.43;;;49.72;;
71343;SDS011;59146;43.850;25.948;2023-01-09T15:20:55;267.95;;;46.83;;
71343;SDS011;59146;43.850;25.948;2023-01-09T15:23:25;135.75;;;53.72;;
71343;SDS011;59146;43.850;25.948;2023-01-09T15:28:50;267.35;;;50.53;;
71343;SDS011;59146;43.850;25.948;2023-01-09T15:31:18;341.27;;;53.03;;
71343;SDS011;59146;43.850;25.948;2023-01-09T15:33:47;212.63;;;49.70;;
71343;SDS011;59146;43.850;25.948;2023-01-09T15:36:17;267.30;;;52.45;;
71343;SDS011;59146;43.850;25.948;2023-01-09T15:38:47;226.07;;;51.08;;
71343;SDS011;59146;43.850;25.948;2023-01-09T15:41:15;254.15;;;50.30;;
71343;SDS011;59146;43.850;25.948;2023-01-09T15:44:03;270.65;;;53.00;;
71343;SDS011;59146;43.850;25.948;2023-01-09T15:46:34;257.08;;;53.22;;
71343;SDS011;59146;43.850;25.948;2023-01-09T15:48:59;246.93;;;54.03;;
71343;SDS011;59146;43.850;25.948;2023-01-09T15:51:25;222.85;;;56.80;;
71343;SDS011;59146;43.850;25.948;2023-01-09T15:53:51;217.02;;;58.58;;
71343;SDS011;59146;43.850;25.948;2023-01-09T15:56:25;488.45;;;70.57;;
71343;SDS011;59146;43.850;25.948;2023-01-09T15:58:54;246.98;;;63.70;;
71343;SDS011;59146;43.850;25.948;2023-01-09T16:01:30;250.70;;;61.55;;
71343;SDS011;59146;43.850;25.948;2023-01-09T16:04:14;279.87;;;62.40;;
71343;SDS011;59146;43.850;25.948;2023-01-09T16:06:45;591.97;;;83.95;;
71343;SDS011;59146;43.850;25.948;2023-01-09T16:09:20;387.60;;;74.30;;
71343;SDS011;59146;43.850;25.948;2023-01-09T16:11:55;351.13;;;69.55;;
71343;SDS011;59146;43.850;25.948;2023-01-09T16:14:25;359.23;;;73.57;;
71343;SDS011;59146;43.850;25.948;2023-01-09T16:16:58;371.33;;;59.38;;
71343;SDS011;59146;43.850;25.948;2023-01-09T16:21:55;304.23;;;67.97;;
71343;SDS011;59146;43.850;25.948;2023-01-09T16:24:39;303.08;;;77.43;;
71343;SDS011;59146;43.850;25.948;2023-01-09T16:27:16;396.02;;;65.60;;
71343;SDS011;59146;43.850;25.948;2023-01-09T16:29:48;362.15;;;59.35;;
71343;SDS011;59146;43.850;25.948;2023-01-09T16:32:25;357.85;;;59.20;;